カラチ の空港の天気 - METARとTAF

ジンナー国際空港(カラチ) ( OPKC / KHI ) - パキスタン Karachi
飛行場実況気象(Metar)
観測時間04/21 21:25 PKT (04/21 16:25 UTC)
風向・風速西南西 5m/s
視程6000m
天気現象
全天の4割程度の雲 雲底高度 610m
気温27℃
湿度74%
気圧1008hPa
METAROPKC 211625Z 25010KT 6000 SCT020 27/22 Q1008 NOSIG
過去の天気等 Google飛行場航空写真 Wunderground天気予報

過去48時間のMETAR

飛行場予報(TAF)
発表時間: 4/21 15:00 PKT (4/21 10:00 UTC)
予報対象時間: 21日17時 PKT ~ 22日23時 PKT
風向・風速西南西 5m/s 瞬間風速 10m/s
視程6000m
なし
22日5時 PKT ~ 22日9時 PKT に一時的に
風向・風速西 5m/s
視程4000m
天気現象煙霧
なし
22日12時 PKT ~ 22日14時 PKT に徐々に
風向・風速南西 5m/s 瞬間風速 10m/s
視程7000m
なし
TAF OPKC 211000Z 2112/2218 25010G20KT 6000 NSC
TEMPO 2200/2204 28010KT 4000 HZ NSC
BECMG 2207/2209 23010G20KT 7000 NSC